sensor_id;sensor_type;location;lat;lon;timestamp;P1;durP1;ratioP1;P2;durP2;ratioP2
63346;SDS011;49472;49.880;8.650;2023-05-20T00:01:30;14.83;;;13.60;;
63346;SDS011;49472;49.880;8.650;2023-05-20T00:03:56;15.03;;;13.87;;
63346;SDS011;49472;49.880;8.650;2023-05-20T00:06:21;15.07;;;13.70;;
63346;SDS011;49472;49.880;8.650;2023-05-20T00:08:47;15.57;;;14.17;;
63346;SDS011;49472;49.880;8.650;2023-05-20T00:11:12;14.43;;;13.50;;
63346;SDS011;49472;49.880;8.650;2023-05-20T00:13:37;14.67;;;13.57;;
63346;SDS011;49472;49.880;8.650;2023-05-20T00:16:03;14.57;;;13.47;;
63346;SDS011;49472;49.880;8.650;2023-05-20T00:18:29;15.13;;;14.03;;
63346;SDS011;49472;49.880;8.650;2023-05-20T00:20:54;14.77;;;13.53;;
63346;SDS011;49472;49.880;8.650;2023-05-20T00:23:20;14.30;;;13.10;;
63346;SDS011;49472;49.880;8.650;2023-05-20T00:25:45;15.30;;;14.10;;
63346;SDS011;49472;49.880;8.650;2023-05-20T00:28:10;14.07;;;13.10;;
63346;SDS011;49472;49.880;8.650;2023-05-20T00:30:38;14.73;;;13.53;;
63346;SDS011;49472;49.880;8.650;2023-05-20T00:33:05;15.03;;;14.00;;
63346;SDS011;49472;49.880;8.650;2023-05-20T00:35:31;14.30;;;13.20;;
63346;SDS011;49472;49.880;8.650;2023-05-20T00:37:56;15.10;;;14.03;;
63346;SDS011;49472;49.880;8.650;2023-05-20T00:40:21;14.73;;;13.63;;
63346;SDS011;49472;49.880;8.650;2023-05-20T00:42:48;14.70;;;13.53;;
63346;SDS011;49472;49.880;8.650;2023-05-20T00:45:14;15.60;;;14.30;;
63346;SDS011;49472;49.880;8.650;2023-05-20T00:47:39;14.57;;;13.57;;
63346;SDS011;49472;49.880;8.650;2023-05-20T00:50:06;14.87;;;13.67;;
63346;SDS011;49472;49.880;8.650;2023-05-20T00:52:34;14.70;;;13.60;;
63346;SDS011;49472;49.880;8.650;2023-05-20T00:55:01;14.03;;;13.03;;
63346;SDS011;49472;49.880;8.650;2023-05-20T00:57:26;14.67;;;13.67;;
63346;SDS011;49472;49.880;8.650;2023-05-20T00:59:52;15.47;;;14.10;;
63346;SDS011;49472;49.880;8.650;2023-05-20T01:02:18;14.90;;;13.77;;
63346;SDS011;49472;49.880;8.650;2023-05-20T01:04:43;14.93;;;13.67;;
63346;SDS011;49472;49.880;8.650;2023-05-20T01:07:11;14.30;;;13.33;;
63346;SDS011;49472;49.880;8.650;2023-05-20T01:09:39;14.67;;;13.50;;
63346;SDS011;49472;49.880;8.650;2023-05-20T01:12:11;14.87;;;13.87;;
63346;SDS011;49472;49.880;8.650;2023-05-20T01:14:42;14.13;;;13.30;;
63346;SDS011;49472;49.880;8.650;2023-05-20T01:17:13;15.70;;;14.47;;
63346;SDS011;49472;49.880;8.650;2023-05-20T01:19:42;14.30;;;13.10;;
63346;SDS011;49472;49.880;8.650;2023-05-20T01:22:10;15.30;;;14.13;;
63346;SDS011;49472;49.880;8.650;2023-05-20T01:24:46;14.63;;;13.63;;
63346;SDS011;49472;49.880;8.650;2023-05-20T01:27:17;16.37;;;14.90;;
63346;SDS011;49472;49.880;8.650;2023-05-20T01:29:44;15.13;;;13.80;;
63346;SDS011;49472;49.880;8.650;2023-05-20T01:32:22;16.00;;;14.83;;
63346;SDS011;49472;49.880;8.650;2023-05-20T01:34:51;14.83;;;13.47;;
63346;SDS011;49472;49.880;8.650;2023-05-20T01:37:17;14.07;;;13.17;;
63346;SDS011;49472;49.880;8.650;2023-05-20T01:39:43;15.73;;;14.10;;
63346;SDS011;49472;49.880;8.650;2023-05-20T01:42:10;15.13;;;14.03;;
63346;SDS011;49472;49.880;8.650;2023-05-20T01:44:37;14.67;;;13.57;;
63346;SDS011;49472;49.880;8.650;2023-05-20T01:47:03;16.00;;;14.70;;
63346;SDS011;49472;49.880;8.650;2023-05-20T01:49:28;15.13;;;13.90;;
63346;SDS011;49472;49.880;8.650;2023-05-20T01:51:54;16.60;;;14.40;;
63346;SDS011;49472;49.880;8.650;2023-05-20T01:54:20;16.77;;;15.40;;
63346;SDS011;49472;49.880;8.650;2023-05-20T01:56:45;23.40;;;15.20;;
63346;SDS011;49472;49.880;8.650;2023-05-20T01:59:11;15.03;;;14.03;;
63346;SDS011;49472;49.880;8.650;2023-05-20T02:01:36;16.73;;;14.80;;
63346;SDS011;49472;49.880;8.650;2023-05-20T02:04:02;15.30;;;13.87;;
63346;SDS011;49472;49.880;8.650;2023-05-20T02:06:27;16.73;;;15.40;;
63346;SDS011;49472;49.880;8.650;2023-05-20T02:08:53;15.40;;;14.30;;
63346;SDS011;49472;49.880;8.650;2023-05-20T02:11:18;16.27;;;14.87;;
63346;SDS011;49472;49.880;8.650;2023-05-20T02:13:44;14.97;;;13.97;;
63346;SDS011;49472;49.880;8.650;2023-05-20T02:16:09;16.53;;;15.10;;
63346;SDS011;49472;49.880;8.650;2023-05-20T02:18:34;17.30;;;15.90;;
63346;SDS011;49472;49.880;8.650;2023-05-20T02:21:03;15.63;;;14.23;;
63346;SDS011;49472;49.880;8.650;2023-05-20T02:23:29;15.63;;;14.33;;
63346;SDS011;49472;49.880;8.650;2023-05-20T02:25:55;15.17;;;14.17;;
63346;SDS011;49472;49.880;8.650;2023-05-20T02:28:20;15.17;;;13.97;;
63346;SDS011;49472;49.880;8.650;2023-05-20T02:30:45;17.33;;;15.40;;
63346;SDS011;49472;49.880;8.650;2023-05-20T02:33:11;15.80;;;14.60;;
63346;SDS011;49472;49.880;8.650;2023-05-20T02:35:37;17.53;;;15.80;;
63346;SDS011;49472;49.880;8.650;2023-05-20T02:38:03;16.60;;;15.20;;
63346;SDS011;49472;49.880;8.650;2023-05-20T02:40:28;15.50;;;14.30;;
63346;SDS011;49472;49.880;8.650;2023-05-20T02:42:53;16.10;;;14.90;;
63346;SDS011;49472;49.880;8.650;2023-05-20T02:45:19;16.03;;;14.50;;
63346;SDS011;49472;49.880;8.650;2023-05-20T02:47:44;15.40;;;14.30;;
63346;SDS011;49472;49.880;8.650;2023-05-20T02:50:10;16.10;;;14.30;;
63346;SDS011;49472;49.880;8.650;2023-05-20T02:52:35;15.70;;;14.27;;
63346;SDS011;49472;49.880;8.650;2023-05-20T02:55:01;15.70;;;14.60;;
63346;SDS011;49472;49.880;8.650;2023-05-20T02:57:26;15.30;;;14.00;;
63346;SDS011;49472;49.880;8.650;2023-05-20T02:59:52;21.43;;;14.93;;
63346;SDS011;49472;49.880;8.650;2023-05-20T03:02:19;16.63;;;14.93;;
63346;SDS011;49472;49.880;8.650;2023-05-20T03:04:45;15.97;;;14.77;;
63346;SDS011;49472;49.880;8.650;2023-05-20T03:07:11;16.97;;;15.27;;
63346;SDS011;49472;49.880;8.650;2023-05-20T03:09:36;16.60;;;14.90;;
63346;SDS011;49472;49.880;8.650;2023-05-20T03:12:01;15.80;;;14.40;;
63346;SDS011;49472;49.880;8.650;2023-05-20T03:14:27;16.10;;;14.80;;
63346;SDS011;49472;49.880;8.650;2023-05-20T03:16:53;14.63;;;13.63;;
63346;SDS011;49472;49.880;8.650;2023-05-20T03:19:21;16.33;;;14.53;;
63346;SDS011;49472;49.880;8.650;2023-05-20T03:21:46;15.47;;;14.23;;
63346;SDS011;49472;49.880;8.650;2023-05-20T03:24:12;15.33;;;14.23;;
63346;SDS011;49472;49.880;8.650;2023-05-20T03:26:37;14.73;;;13.43;;
63346;SDS011;49472;49.880;8.650;2023-05-20T03:29:08;15.40;;;14.40;;
63346;SDS011;49472;49.880;8.650;2023-05-20T03:31:34;16.00;;;14.37;;
63346;SDS011;49472;49.880;8.650;2023-05-20T03:33:59;16.83;;;15.27;;
63346;SDS011;49472;49.880;8.650;2023-05-20T03:36:25;16.97;;;15.60;;
63346;SDS011;49472;49.880;8.650;2023-05-20T03:38:50;16.03;;;14.50;;
63346;SDS011;49472;49.880;8.650;2023-05-20T03:41:15;15.47;;;14.30;;
63346;SDS011;49472;49.880;8.650;2023-05-20T03:43:41;16.07;;;14.97;;
63346;SDS011;49472;49.880;8.650;2023-05-20T03:46:06;17.20;;;15.60;;
63346;SDS011;49472;49.880;8.650;2023-05-20T03:48:31;16.43;;;15.10;;
63346;SDS011;49472;49.880;8.650;2023-05-20T03:50:57;17.07;;;15.57;;
63346;SDS011;49472;49.880;8.650;2023-05-20T03:53:22;18.33;;;16.80;;
63346;SDS011;49472;49.880;8.650;2023-05-20T03:55:48;20.10;;;17.03;;
63346;SDS011;49472;49.880;8.650;2023-05-20T03:58:13;19.07;;;17.40;;
63346;SDS011;49472;49.880;8.650;2023-05-20T04:00:39;17.93;;;16.43;;
63346;SDS011;49472;49.880;8.650;2023-05-20T04:03:05;18.23;;;16.57;;
63346;SDS011;49472;49.880;8.650;2023-05-20T04:05:30;17.23;;;15.70;;
63346;SDS011;49472;49.880;8.650;2023-05-20T04:07:56;17.33;;;15.93;;
63346;SDS011;49472;49.880;8.650;2023-05-20T04:10:21;16.80;;;15.60;;
63346;SDS011;49472;49.880;8.650;2023-05-20T04:12:46;17.07;;;15.30;;
63346;SDS011;49472;49.880;8.650;2023-05-20T04:15:12;17.10;;;15.60;;
63346;SDS011;49472;49.880;8.650;2023-05-20T04:17:37;16.33;;;15.07;;
63346;SDS011;49472;49.880;8.650;2023-05-20T04:20:04;16.33;;;14.90;;
63346;SDS011;49472;49.880;8.650;2023-05-20T04:22:31;16.40;;;15.20;;
63346;SDS011;49472;49.880;8.650;2023-05-20T04:24:56;16.80;;;15.60;;
63346;SDS011;49472;49.880;8.650;2023-05-20T04:27:23;16.13;;;14.93;;
63346;SDS011;49472;49.880;8.650;2023-05-20T04:29:49;16.90;;;15.80;;
63346;SDS011;49472;49.880;8.650;2023-05-20T04:32:17;16.80;;;15.60;;
63346;SDS011;49472;49.880;8.650;2023-05-20T04:34:43;17.20;;;15.63;;
63346;SDS011;49472;49.880;8.650;2023-05-20T04:37:09;16.57;;;15.17;;
63346;SDS011;49472;49.880;8.650;2023-05-20T04:39:34;16.70;;;15.33;;
63346;SDS011;49472;49.880;8.650;2023-05-20T04:42:00;16.90;;;15.50;;
63346;SDS011;49472;49.880;8.650;2023-05-20T04:44:26;16.60;;;15.23;;
63346;SDS011;49472;49.880;8.650;2023-05-20T04:46:52;18.70;;;16.13;;
63346;SDS011;49472;49.880;8.650;2023-05-20T04:49:17;17.03;;;15.53;;
63346;SDS011;49472;49.880;8.650;2023-05-20T04:51:43;16.57;;;15.27;;
63346;SDS011;49472;49.880;8.650;2023-05-20T04:54:08;19.90;;;16.10;;
63346;SDS011;49472;49.880;8.650;2023-05-20T04:56:33;16.93;;;15.27;;
63346;SDS011;49472;49.880;8.650;2023-05-20T04:59:00;15.70;;;14.50;;
63346;SDS011;49472;49.880;8.650;2023-05-20T05:01:25;14.90;;;13.60;;
63346;SDS011;49472;49.880;8.650;2023-05-20T05:03:51;15.33;;;13.90;;
63346;SDS011;49472;49.880;8.650;2023-05-20T05:06:16;15.70;;;14.50;;
63346;SDS011;49472;49.880;8.650;2023-05-20T05:08:42;16.03;;;14.83;;
63346;SDS011;49472;49.880;8.650;2023-05-20T05:11:07;16.60;;;15.30;;
63346;SDS011;49472;49.880;8.650;2023-05-20T05:13:32;16.23;;;14.70;;
63346;SDS011;49472;49.880;8.650;2023-05-20T05:15:58;15.43;;;14.27;;
63346;SDS011;49472;49.880;8.650;2023-05-20T05:18:24;15.67;;;14.37;;
63346;SDS011;49472;49.880;8.650;2023-05-20T05:20:57;16.40;;;15.00;;
63346;SDS011;49472;49.880;8.650;2023-05-20T05:23:22;16.63;;;15.23;;
63346;SDS011;49472;49.880;8.650;2023-05-20T05:25:51;15.67;;;14.67;;
63346;SDS011;49472;49.880;8.650;2023-05-20T05:28:17;17.27;;;15.97;;
63346;SDS011;49472;49.880;8.650;2023-05-20T05:30:42;16.63;;;15.30;;
63346;SDS011;49472;49.880;8.650;2023-05-20T05:33:07;17.10;;;15.90;;
63346;SDS011;49472;49.880;8.650;2023-05-20T05:35:32;15.80;;;14.50;;
63346;SDS011;49472;49.880;8.650;2023-05-20T05:37:58;16.17;;;15.07;;
63346;SDS011;49472;49.880;8.650;2023-05-20T05:40:23;15.70;;;14.50;;
63346;SDS011;49472;49.880;8.650;2023-05-20T05:42:48;16.23;;;15.07;;
63346;SDS011;49472;49.880;8.650;2023-05-20T05:45:14;15.20;;;14.20;;
63346;SDS011;49472;49.880;8.650;2023-05-20T05:47:39;16.43;;;15.07;;
63346;SDS011;49472;49.880;8.650;2023-05-20T05:50:04;16.70;;;15.17;;
63346;SDS011;49472;49.880;8.650;2023-05-20T05:52:30;16.47;;;15.07;;
63346;SDS011;49472;49.880;8.650;2023-05-20T05:54:55;17.77;;;16.03;;
63346;SDS011;49472;49.880;8.650;2023-05-20T05:57:21;16.30;;;14.80;;
63346;SDS011;49472;49.880;8.650;2023-05-20T05:59:46;18.93;;;15.60;;
63346;SDS011;49472;49.880;8.650;2023-05-20T06:02:11;16.97;;;15.67;;
63346;SDS011;49472;49.880;8.650;2023-05-20T06:04:38;16.67;;;15.30;;
63346;SDS011;49472;49.880;8.650;2023-05-20T06:07:03;17.70;;;16.17;;
63346;SDS011;49472;49.880;8.650;2023-05-20T06:09:29;16.33;;;14.93;;
63346;SDS011;49472;49.880;8.650;2023-05-20T06:11:54;16.50;;;15.30;;
63346;SDS011;49472;49.880;8.650;2023-05-20T06:14:20;17.20;;;15.80;;
63346;SDS011;49472;49.880;8.650;2023-05-20T06:16:45;32.17;;;25.20;;
63346;SDS011;49472;49.880;8.650;2023-05-20T06:19:11;17.60;;;16.00;;
63346;SDS011;49472;49.880;8.650;2023-05-20T06:21:36;16.27;;;14.97;;
63346;SDS011;49472;49.880;8.650;2023-05-20T06:24:02;16.70;;;14.90;;
63346;SDS011;49472;49.880;8.650;2023-05-20T06:26:28;17.80;;;16.17;;
63346;SDS011;49472;49.880;8.650;2023-05-20T06:28:53;16.57;;;15.37;;
63346;SDS011;49472;49.880;8.650;2023-05-20T06:31:18;18.37;;;16.77;;
63346;SDS011;49472;49.880;8.650;2023-05-20T06:33:44;17.93;;;16.23;;
63346;SDS011;49472;49.880;8.650;2023-05-20T06:36:09;16.10;;;14.90;;
63346;SDS011;49472;49.880;8.650;2023-05-20T06:38:35;15.70;;;14.60;;
63346;SDS011;49472;49.880;8.650;2023-05-20T06:41:01;18.73;;;15.03;;
63346;SDS011;49472;49.880;8.650;2023-05-20T06:43:26;16.80;;;15.20;;
63346;SDS011;49472;49.880;8.650;2023-05-20T06:45:52;16.83;;;15.27;;
63346;SDS011;49472;49.880;8.650;2023-05-20T06:48:18;16.23;;;15.00;;
63346;SDS011;49472;49.880;8.650;2023-05-20T06:50:43;17.37;;;16.00;;
63346;SDS011;49472;49.880;8.650;2023-05-20T06:53:09;17.03;;;15.73;;
63346;SDS011;49472;49.880;8.650;2023-05-20T06:55:35;17.13;;;15.93;;
63346;SDS011;49472;49.880;8.650;2023-05-20T06:58:01;18.23;;;15.80;;
63346;SDS011;49472;49.880;8.650;2023-05-20T07:00:27;16.87;;;15.57;;
63346;SDS011;49472;49.880;8.650;2023-05-20T07:02:52;17.13;;;15.70;;
63346;SDS011;49472;49.880;8.650;2023-05-20T07:05:18;18.77;;;17.10;;
63346;SDS011;49472;49.880;8.650;2023-05-20T07:07:43;17.87;;;16.37;;
63346;SDS011;49472;49.880;8.650;2023-05-20T07:10:09;16.97;;;15.63;;
63346;SDS011;49472;49.880;8.650;2023-05-20T07:12:34;17.03;;;15.43;;
63346;SDS011;49472;49.880;8.650;2023-05-20T07:14:59;18.27;;;16.53;;
63346;SDS011;49472;49.880;8.650;2023-05-20T07:17:25;16.97;;;15.57;;
63346;SDS011;49472;49.880;8.650;2023-05-20T07:19:54;17.13;;;15.73;;
63346;SDS011;49472;49.880;8.650;2023-05-20T07:22:20;17.50;;;16.00;;
63346;SDS011;49472;49.880;8.650;2023-05-20T07:24:46;17.80;;;16.43;;
63346;SDS011;49472;49.880;8.650;2023-05-20T07:27:11;16.77;;;15.47;;
63346;SDS011;49472;49.880;8.650;2023-05-20T07:29:36;17.87;;;15.97;;
63346;SDS011;49472;49.880;8.650;2023-05-20T07:32:02;17.70;;;16.30;;
63346;SDS011;49472;49.880;8.650;2023-05-20T07:34:29;17.67;;;15.80;;
63346;SDS011;49472;49.880;8.650;2023-05-20T07:36:54;18.27;;;16.40;;
63346;SDS011;49472;49.880;8.650;2023-05-20T07:39:20;18.20;;;16.60;;
63346;SDS011;49472;49.880;8.650;2023-05-20T07:41:46;18.43;;;17.00;;
63346;SDS011;49472;49.880;8.650;2023-05-20T07:44:11;18.03;;;16.50;;
63346;SDS011;49472;49.880;8.650;2023-05-20T07:46:37;17.67;;;16.07;;
63346;SDS011;49472;49.880;8.650;2023-05-20T07:49:03;18.13;;;16.63;;
63346;SDS011;49472;49.880;8.650;2023-05-20T07:51:29;18.00;;;16.60;;
63346;SDS011;49472;49.880;8.650;2023-05-20T07:53:55;17.50;;;16.20;;
63346;SDS011;49472;49.880;8.650;2023-05-20T07:56:21;17.97;;;16.10;;
63346;SDS011;49472;49.880;8.650;2023-05-20T07:58:53;18.07;;;16.67;;
63346;SDS011;49472;49.880;8.650;2023-05-20T08:01:23;18.00;;;16.40;;
63346;SDS011;49472;49.880;8.650;2023-05-20T08:03:49;16.23;;;15.13;;
63346;SDS011;49472;49.880;8.650;2023-05-20T08:06:14;18.53;;;16.73;;
63346;SDS011;49472;49.880;8.650;2023-05-20T08:08:41;21.73;;;17.17;;
63346;SDS011;49472;49.880;8.650;2023-05-20T08:11:07;18.80;;;16.00;;
63346;SDS011;49472;49.880;8.650;2023-05-20T08:13:32;18.03;;;16.53;;
63346;SDS011;49472;49.880;8.650;2023-05-20T08:15:57;17.20;;;15.63;;
63346;SDS011;49472;49.880;8.650;2023-05-20T08:18:23;17.40;;;15.83;;
63346;SDS011;49472;49.880;8.650;2023-05-20T08:20:48;21.53;;;16.53;;
63346;SDS011;49472;49.880;8.650;2023-05-20T08:23:14;18.37;;;16.50;;
63346;SDS011;49472;49.880;8.650;2023-05-20T08:25:40;17.63;;;16.13;;
63346;SDS011;49472;49.880;8.650;2023-05-20T08:28:05;18.87;;;17.10;;
63346;SDS011;49472;49.880;8.650;2023-05-20T08:30:31;17.17;;;15.83;;
63346;SDS011;49472;49.880;8.650;2023-05-20T08:32:58;19.27;;;16.97;;
63346;SDS011;49472;49.880;8.650;2023-05-20T08:35:23;18.17;;;16.47;;
63346;SDS011;49472;49.880;8.650;2023-05-20T08:37:49;18.13;;;16.50;;
63346;SDS011;49472;49.880;8.650;2023-05-20T08:40:14;18.00;;;16.67;;
63346;SDS011;49472;49.880;8.650;2023-05-20T08:42:43;18.00;;;16.60;;
63346;SDS011;49472;49.880;8.650;2023-05-20T08:45:12;18.17;;;16.63;;
63346;SDS011;49472;49.880;8.650;2023-05-20T08:47:42;17.90;;;16.50;;
63346;SDS011;49472;49.880;8.650;2023-05-20T08:50:08;17.33;;;16.03;;
63346;SDS011;49472;49.880;8.650;2023-05-20T08:52:35;18.57;;;16.13;;
63346;SDS011;49472;49.880;8.650;2023-05-20T08:55:02;18.57;;;17.07;;
63346;SDS011;49472;49.880;8.650;2023-05-20T08:57:31;18.43;;;16.67;;
63346;SDS011;49472;49.880;8.650;2023-05-20T08:59:58;18.77;;;17.17;;
63346;SDS011;49472;49.880;8.650;2023-05-20T09:02:24;18.27;;;16.97;;
63346;SDS011;49472;49.880;8.650;2023-05-20T09:04:49;17.10;;;15.70;;
63346;SDS011;49472;49.880;8.650;2023-05-20T09:07:25;18.20;;;16.80;;
63346;SDS011;49472;49.880;8.650;2023-05-20T09:09:53;18.80;;;17.30;;
63346;SDS011;49472;49.880;8.650;2023-05-20T09:12:19;18.47;;;16.80;;
63346;SDS011;49472;49.880;8.650;2023-05-20T09:14:45;19.27;;;17.77;;
63346;SDS011;49472;49.880;8.650;2023-05-20T09:17:11;18.03;;;16.37;;
63346;SDS011;49472;49.880;8.650;2023-05-20T09:19:37;19.33;;;17.63;;
63346;SDS011;49472;49.880;8.650;2023-05-20T09:22:02;18.70;;;16.90;;
63346;SDS011;49472;49.880;8.650;2023-05-20T09:24:29;18.00;;;16.57;;
63346;SDS011;49472;49.880;8.650;2023-05-20T09:26:54;19.93;;;18.20;;
63346;SDS011;49472;49.880;8.650;2023-05-20T09:29:20;18.77;;;17.07;;
63346;SDS011;49472;49.880;8.650;2023-05-20T09:31:47;18.50;;;17.00;;
63346;SDS011;49472;49.880;8.650;2023-05-20T09:34:13;19.37;;;17.70;;
63346;SDS011;49472;49.880;8.650;2023-05-20T09:36:38;18.83;;;17.10;;
63346;SDS011;49472;49.880;8.650;2023-05-20T09:39:07;19.27;;;17.30;;
63346;SDS011;49472;49.880;8.650;2023-05-20T09:41:43;18.05;;;16.45;;
63346;SDS011;49472;49.880;8.650;2023-05-20T09:44:19;20.23;;;18.47;;
63346;SDS011;49472;49.880;8.650;2023-05-20T09:46:46;18.60;;;16.83;;
63346;SDS011;49472;49.880;8.650;2023-05-20T09:49:21;19.17;;;17.43;;
63346;SDS011;49472;49.880;8.650;2023-05-20T09:51:48;18.38;;;17.08;;
63346;SDS011;49472;49.880;8.650;2023-05-20T09:54:14;19.53;;;17.63;;
63346;SDS011;49472;49.880;8.650;2023-05-20T09:56:44;17.98;;;16.55;;
63346;SDS011;49472;49.880;8.650;2023-05-20T09:59:10;19.15;;;17.60;;
63346;SDS011;49472;49.880;8.650;2023-05-20T11:00:44;20.25;;;18.55;;
63346;SDS011;49472;49.880;8.650;2023-05-20T11:03:10;20.27;;;18.77;;
63346;SDS011;49472;49.880;8.650;2023-05-20T11:05:37;21.75;;;19.52;;
63346;SDS011;49472;49.880;8.650;2023-05-20T11:08:04;20.13;;;18.58;;
63346;SDS011;49472;49.880;8.650;2023-05-20T11:15:34;24.70;;;18.77;;
63346;SDS011;49472;49.880;8.650;2023-05-20T11:18:02;18.58;;;17.17;;
63346;SDS011;49472;49.880;8.650;2023-05-20T11:20:28;20.65;;;18.67;;
63346;SDS011;49472;49.880;8.650;2023-05-20T11:22:54;20.13;;;18.15;;
63346;SDS011;49472;49.880;8.650;2023-05-20T11:25:20;18.17;;;16.88;;
63346;SDS011;49472;49.880;8.650;2023-05-20T11:27:47;18.15;;;16.75;;
63346;SDS011;49472;49.880;8.650;2023-05-20T11:30:14;19.10;;;17.65;;
63346;SDS011;49472;49.880;8.650;2023-05-20T11:36:02;18.70;;;17.10;;
63346;SDS011;49472;49.880;8.650;2023-05-20T11:38:28;18.30;;;16.60;;
63346;SDS011;49472;49.880;8.650;2023-05-20T11:40:54;18.05;;;16.58;;
63346;SDS011;49472;49.880;8.650;2023-05-20T11:43:20;18.17;;;16.88;;
63346;SDS011;49472;49.880;8.650;2023-05-20T11:45:51;19.10;;;17.17;;
63346;SDS011;49472;49.880;8.650;2023-05-20T11:48:18;20.52;;;18.52;;
63346;SDS011;49472;49.880;8.650;2023-05-20T11:50:44;19.98;;;18.55;;
63346;SDS011;49472;49.880;8.650;2023-05-20T11:53:15;19.98;;;18.48;;
63346;SDS011;49472;49.880;8.650;2023-05-20T11:55:45;19.30;;;17.73;;
63346;SDS011;49472;49.880;8.650;2023-05-20T11:58:19;19.02;;;17.52;;
63346;SDS011;49472;49.880;8.650;2023-05-20T12:00:46;19.70;;;18.30;;
63346;SDS011;49472;49.880;8.650;2023-05-20T12:03:12;20.42;;;18.40;;
63346;SDS011;49472;49.880;8.650;2023-05-20T12:05:38;18.45;;;17.15;;
63346;SDS011;49472;49.880;8.650;2023-05-20T12:08:04;18.83;;;17.33;;
63346;SDS011;49472;49.880;8.650;2023-05-20T12:10:30;19.70;;;18.20;;
63346;SDS011;49472;49.880;8.650;2023-05-20T12:12:56;18.80;;;17.50;;
63346;SDS011;49472;49.880;8.650;2023-05-20T12:15:22;19.77;;;17.88;;
63346;SDS011;49472;49.880;8.650;2023-05-20T12:17:48;18.38;;;16.77;;
63346;SDS011;49472;49.880;8.650;2023-05-20T12:20:15;18.02;;;16.48;;
63346;SDS011;49472;49.880;8.650;2023-05-20T12:22:43;18.05;;;16.30;;
63346;SDS011;49472;49.880;8.650;2023-05-20T12:25:12;18.90;;;17.45;;
63346;SDS011;49472;49.880;8.650;2023-05-20T12:27:40;18.08;;;16.15;;
63346;SDS011;49472;49.880;8.650;2023-05-20T12:30:06;17.67;;;16.48;;
63346;SDS011;49472;49.880;8.650;2023-05-20T12:32:34;19.05;;;17.65;;
63346;SDS011;49472;49.880;8.650;2023-05-20T12:35:00;18.33;;;16.83;;
63346;SDS011;49472;49.880;8.650;2023-05-20T12:37:25;18.13;;;16.75;;
63346;SDS011;49472;49.880;8.650;2023-05-20T12:39:51;17.67;;;16.38;;
63346;SDS011;49472;49.880;8.650;2023-05-20T12:42:16;17.35;;;15.82;;
63346;SDS011;49472;49.880;8.650;2023-05-20T12:44:41;17.90;;;16.38;;
63346;SDS011;49472;49.880;8.650;2023-05-20T12:47:07;17.80;;;16.48;;
63346;SDS011;49472;49.880;8.650;2023-05-20T12:49:33;17.80;;;16.50;;
63346;SDS011;49472;49.880;8.650;2023-05-20T12:51:58;16.73;;;15.40;;
63346;SDS011;49472;49.880;8.650;2023-05-20T12:54:24;18.88;;;17.27;;
63346;SDS011;49472;49.880;8.650;2023-05-20T12:56:52;17.88;;;16.45;;
63346;SDS011;49472;49.880;8.650;2023-05-20T12:59:18;22.02;;;16.95;;
63346;SDS011;49472;49.880;8.650;2023-05-20T13:01:43;19.77;;;18.17;;
63346;SDS011;49472;49.880;8.650;2023-05-20T13:04:08;18.00;;;16.70;;
63346;SDS011;49472;49.880;8.650;2023-05-20T13:06:33;18.85;;;17.25;;
63346;SDS011;49472;49.880;8.650;2023-05-20T13:08:59;18.48;;;17.10;;
63346;SDS011;49472;49.880;8.650;2023-05-20T13:11:24;18.80;;;17.23;;
63346;SDS011;49472;49.880;8.650;2023-05-20T13:13:50;18.10;;;16.77;;
63346;SDS011;49472;49.880;8.650;2023-05-20T13:16:15;17.73;;;16.02;;
63346;SDS011;49472;49.880;8.650;2023-05-20T13:18:41;18.48;;;16.73;;
63346;SDS011;49472;49.880;8.650;2023-05-20T13:21:07;18.35;;;17.02;;
63346;SDS011;49472;49.880;8.650;2023-05-20T13:23:33;18.60;;;17.30;;
63346;SDS011;49472;49.880;8.650;2023-05-20T13:25:58;18.52;;;17.13;;
63346;SDS011;49472;49.880;8.650;2023-05-20T13:28:23;17.77;;;16.52;;
63346;SDS011;49472;49.880;8.650;2023-05-20T13:30:49;19.73;;;18.23;;
63346;SDS011;49472;49.880;8.650;2023-05-20T13:33:14;18.50;;;16.90;;
63346;SDS011;49472;49.880;8.650;2023-05-20T13:35:40;17.42;;;15.88;;
63346;SDS011;49472;49.880;8.650;2023-05-20T13:38:05;17.25;;;16.02;;
63346;SDS011;49472;49.880;8.650;2023-05-20T13:40:30;18.80;;;17.17;;
63346;SDS011;49472;49.880;8.650;2023-05-20T13:42:56;16.90;;;15.70;;
63346;SDS011;49472;49.880;8.650;2023-05-20T13:45:21;18.98;;;17.13;;
63346;SDS011;49472;49.880;8.650;2023-05-20T13:47:47;18.23;;;16.73;;
63346;SDS011;49472;49.880;8.650;2023-05-20T13:50:12;17.67;;;16.38;;
63346;SDS011;49472;49.880;8.650;2023-05-20T13:52:37;18.08;;;16.77;;
63346;SDS011;49472;49.880;8.650;2023-05-20T13:55:03;16.17;;;14.88;;
63346;SDS011;49472;49.880;8.650;2023-05-20T13:57:28;16.83;;;15.27;;
63346;SDS011;49472;49.880;8.650;2023-05-20T13:59:54;17.73;;;16.42;;
63346;SDS011;49472;49.880;8.650;2023-05-20T14:02:19;17.10;;;15.90;;
63346;SDS011;49472;49.880;8.650;2023-05-20T14:04:45;16.75;;;15.60;;
63346;SDS011;49472;49.880;8.650;2023-05-20T14:07:11;15.90;;;14.80;;
63346;SDS011;49472;49.880;8.650;2023-05-20T14:09:37;17.13;;;15.93;;
63346;SDS011;49472;49.880;8.650;2023-05-20T14:12:03;17.83;;;15.70;;
63346;SDS011;49472;49.880;8.650;2023-05-20T14:14:28;16.88;;;15.25;;
63346;SDS011;49472;49.880;8.650;2023-05-20T14:16:54;17.05;;;15.85;;
63346;SDS011;49472;49.880;8.650;2023-05-20T14:19:19;19.13;;;16.52;;
63346;SDS011;49472;49.880;8.650;2023-05-20T14:21:45;17.00;;;15.70;;
63346;SDS011;49472;49.880;8.650;2023-05-20T14:24:10;18.65;;;17.02;;
63346;SDS011;49472;49.880;8.650;2023-05-20T14:26:35;16.80;;;15.60;;
63346;SDS011;49472;49.880;8.650;2023-05-20T14:29:01;17.00;;;15.75;;
63346;SDS011;49472;49.880;8.650;2023-05-20T14:31:26;17.75;;;16.45;;
63346;SDS011;49472;49.880;8.650;2023-05-20T14:33:51;16.98;;;15.68;;
63346;SDS011;49472;49.880;8.650;2023-05-20T14:36:17;16.73;;;15.45;;
63346;SDS011;49472;49.880;8.650;2023-05-20T14:38:42;16.67;;;15.43;;
63346;SDS011;49472;49.880;8.650;2023-05-20T14:41:08;16.65;;;15.60;;
63346;SDS011;49472;49.880;8.650;2023-05-20T14:43:33;16.67;;;15.43;;
63346;SDS011;49472;49.880;8.650;2023-05-20T14:45:59;18.08;;;16.15;;
63346;SDS011;49472;49.880;8.650;2023-05-20T14:48:26;16.98;;;15.77;;
63346;SDS011;49472;49.880;8.650;2023-05-20T14:50:52;17.38;;;15.77;;
63346;SDS011;49472;49.880;8.650;2023-05-20T14:53:17;18.73;;;16.80;;
63346;SDS011;49472;49.880;8.650;2023-05-20T14:55:43;21.77;;;16.45;;
63346;SDS011;49472;49.880;8.650;2023-05-20T14:58:08;17.90;;;16.48;;
63346;SDS011;49472;49.880;8.650;2023-05-20T15:00:34;17.85;;;16.35;;
63346;SDS011;49472;49.880;8.650;2023-05-20T15:02:59;16.08;;;14.88;;
63346;SDS011;49472;49.880;8.650;2023-05-20T15:05:25;16.95;;;15.43;;
63346;SDS011;49472;49.880;8.650;2023-05-20T15:07:50;16.98;;;15.57;;
63346;SDS011;49472;49.880;8.650;2023-05-20T15:10:15;16.73;;;15.45;;
63346;SDS011;49472;49.880;8.650;2023-05-20T15:12:41;17.75;;;16.13;;
63346;SDS011;49472;49.880;8.650;2023-05-20T15:15:07;17.17;;;15.48;;
63346;SDS011;49472;49.880;8.650;2023-05-20T15:17:33;16.73;;;14.63;;
63346;SDS011;49472;49.880;8.650;2023-05-20T15:19:59;16.35;;;14.75;;
63346;SDS011;49472;49.880;8.650;2023-05-20T15:22:24;16.65;;;15.23;;